Карточка аэропорта USTR

Внимание!
Информация на этой странице в стадии наполнения.
Если вы не увидели какой-то информации, или заметили неточность - пожалуйста сообщите нам!
Спасибо!
Команда RU-STAFF
Название аэропортаРощино
Название аэропорта (англ.)Roshschino
Превышение378 ft. (115.2 m.)
Координаты57°10.098', 65°19.002'
Высота перехода700m
Эшелон переходаFL040
Коды ответчика5101-5137
Зона ОрВДТюмень РПИ (USTV)
Данные METARUSTR 070330Z 35003MPS 3500 -SN HZ SCT010 OVC016 M14/M16 Q1029 R30/490246 R21/490540 TEMPO 0300 -SN FZFG VV002
Проноз погоды (TAF)USTR 070140Z 0703/0803 35005MPS 2100 -SHSN BR BKN005 BKN011CB TEMPO 0703/0706 01003MPS 0300 SHSN FZFG VV002 FM070600 35005G10MPS 6000 -SHSN DRSN BKN016CB FM071200 31004MPS 9999 SCT020 BECMG 0718/0720 27003MPS TEMPO 0721/0803 3100 IC HZ SCT011
NOTAMshow/hide NOTAM
AWOS   TABLE

Информация о ВПП

ВПП Длина ВПП (м.) Покрытие Курс ВПП Частота ILS
122704Асфальтобетон121 
302704Асфальтобетон301 
033003Асфальтобетон34108.3
213003Асфальтобетон214110.7

Диспетчерские позиции

Позывной Наименование органа УВД Частота
USTR_TWRТюмень-Старт118.200
USTR_GNDТюмень-Руление119.000
USTR_R_APPТюмень-Круг126.100



Спутниковое изображение